sensor_id;sensor_type;location;lat;lon;timestamp;P1;durP1;ratioP1;P2;durP2;ratioP2
781;SDS011;374;52.568;13.402;2023-04-06T00:02:23;8.53;;;7.80;;
781;SDS011;374;52.568;13.402;2023-04-06T00:04:49;8.60;;;7.00;;
781;SDS011;374;52.568;13.402;2023-04-06T00:07:14;8.97;;;8.03;;
781;SDS011;374;52.568;13.402;2023-04-06T00:09:40;8.30;;;7.50;;
781;SDS011;374;52.568;13.402;2023-04-06T00:12:05;8.37;;;7.50;;
781;SDS011;374;52.568;13.402;2023-04-06T00:14:31;7.27;;;6.60;;
781;SDS011;374;52.568;13.402;2023-04-06T00:16:56;9.60;;;8.57;;
781;SDS011;374;52.568;13.402;2023-04-06T00:19:22;8.20;;;7.40;;
781;SDS011;374;52.568;13.402;2023-04-06T00:21:47;8.27;;;6.90;;
781;SDS011;374;52.568;13.402;2023-04-06T00:24:13;10.07;;;7.27;;
781;SDS011;374;52.568;13.402;2023-04-06T00:26:38;9.70;;;7.10;;
781;SDS011;374;52.568;13.402;2023-04-06T00:29:04;7.30;;;6.70;;
781;SDS011;374;52.568;13.402;2023-04-06T00:31:29;9.27;;;7.20;;
781;SDS011;374;52.568;13.402;2023-04-06T00:33:55;10.17;;;6.90;;
781;SDS011;374;52.568;13.402;2023-04-06T00:36:20;8.17;;;7.37;;
781;SDS011;374;52.568;13.402;2023-04-06T00:38:46;7.33;;;6.40;;
781;SDS011;374;52.568;13.402;2023-04-06T00:41:11;7.13;;;6.30;;
781;SDS011;374;52.568;13.402;2023-04-06T00:43:37;6.40;;;5.77;;
781;SDS011;374;52.568;13.402;2023-04-06T00:46:02;7.37;;;6.13;;
781;SDS011;374;52.568;13.402;2023-04-06T00:48:28;7.10;;;6.50;;
781;SDS011;374;52.568;13.402;2023-04-06T00:50:55;7.07;;;6.33;;
781;SDS011;374;52.568;13.402;2023-04-06T00:53:22;7.37;;;6.50;;
781;SDS011;374;52.568;13.402;2023-04-06T00:55:47;6.53;;;5.93;;
781;SDS011;374;52.568;13.402;2023-04-06T00:58:13;6.93;;;6.10;;
781;SDS011;374;52.568;13.402;2023-04-06T01:00:38;7.83;;;6.33;;
781;SDS011;374;52.568;13.402;2023-04-06T01:03:04;5.93;;;5.30;;
781;SDS011;374;52.568;13.402;2023-04-06T01:05:33;7.30;;;5.90;;
781;SDS011;374;52.568;13.402;2023-04-06T01:07:59;8.00;;;6.30;;
781;SDS011;374;52.568;13.402;2023-04-06T01:10:26;8.23;;;5.43;;
781;SDS011;374;52.568;13.402;2023-04-06T01:12:52;8.90;;;6.20;;
781;SDS011;374;52.568;13.402;2023-04-06T01:15:18;6.80;;;6.20;;
781;SDS011;374;52.568;13.402;2023-04-06T01:17:45;7.00;;;6.13;;
781;SDS011;374;52.568;13.402;2023-04-06T01:20:11;6.07;;;5.30;;
781;SDS011;374;52.568;13.402;2023-04-06T01:22:36;6.33;;;5.40;;
781;SDS011;374;52.568;13.402;2023-04-06T01:25:02;8.93;;;5.87;;
781;SDS011;374;52.568;13.402;2023-04-06T01:27:27;6.57;;;5.83;;
781;SDS011;374;52.568;13.402;2023-04-06T01:29:56;8.27;;;5.50;;
781;SDS011;374;52.568;13.402;2023-04-06T01:32:21;5.20;;;4.70;;
781;SDS011;374;52.568;13.402;2023-04-06T01:34:47;6.53;;;5.90;;
781;SDS011;374;52.568;13.402;2023-04-06T01:37:12;6.03;;;5.50;;
781;SDS011;374;52.568;13.402;2023-04-06T01:39:38;13.23;;;5.63;;
781;SDS011;374;52.568;13.402;2023-04-06T01:42:03;5.63;;;5.20;;
781;SDS011;374;52.568;13.402;2023-04-06T01:44:29;6.13;;;4.80;;
781;SDS011;374;52.568;13.402;2023-04-06T01:46:57;9.67;;;5.30;;
781;SDS011;374;52.568;13.402;2023-04-06T01:49:22;5.97;;;5.40;;
781;SDS011;374;52.568;13.402;2023-04-06T01:51:48;9.57;;;5.73;;
781;SDS011;374;52.568;13.402;2023-04-06T01:54:13;6.27;;;5.60;;
781;SDS011;374;52.568;13.402;2023-04-06T01:56:39;6.67;;;5.90;;
781;SDS011;374;52.568;13.402;2023-04-06T01:59:05;7.57;;;5.60;;
781;SDS011;374;52.568;13.402;2023-04-06T02:01:30;5.87;;;4.97;;
781;SDS011;374;52.568;13.402;2023-04-06T02:03:56;6.10;;;5.50;;
781;SDS011;374;52.568;13.402;2023-04-06T02:06:21;9.37;;;5.90;;
781;SDS011;374;52.568;13.402;2023-04-06T02:08:47;6.40;;;5.80;;
781;SDS011;374;52.568;13.402;2023-04-06T02:11:12;6.00;;;5.50;;
781;SDS011;374;52.568;13.402;2023-04-06T02:13:38;6.33;;;5.67;;
781;SDS011;374;52.568;13.402;2023-04-06T02:16:03;6.63;;;5.90;;
781;SDS011;374;52.568;13.402;2023-04-06T02:18:30;7.40;;;5.63;;
781;SDS011;374;52.568;13.402;2023-04-06T02:20:56;6.00;;;5.40;;
781;SDS011;374;52.568;13.402;2023-04-06T02:23:21;6.00;;;5.50;;
781;SDS011;374;52.568;13.402;2023-04-06T02:25:47;6.90;;;5.67;;
781;SDS011;374;52.568;13.402;2023-04-06T02:28:12;6.33;;;5.53;;
781;SDS011;374;52.568;13.402;2023-04-06T02:30:38;7.97;;;6.90;;
781;SDS011;374;52.568;13.402;2023-04-06T02:33:03;6.20;;;5.60;;
781;SDS011;374;52.568;13.402;2023-04-06T02:35:29;8.53;;;6.33;;
781;SDS011;374;52.568;13.402;2023-04-06T02:37:55;7.93;;;7.07;;
781;SDS011;374;52.568;13.402;2023-04-06T02:40:21;7.37;;;6.27;;
781;SDS011;374;52.568;13.402;2023-04-06T02:42:47;7.17;;;5.60;;
781;SDS011;374;52.568;13.402;2023-04-06T02:45:12;6.73;;;5.90;;
781;SDS011;374;52.568;13.402;2023-04-06T02:47:38;6.13;;;5.63;;
781;SDS011;374;52.568;13.402;2023-04-06T02:50:03;6.60;;;6.00;;
781;SDS011;374;52.568;13.402;2023-04-06T02:52:29;6.90;;;6.20;;
781;SDS011;374;52.568;13.402;2023-04-06T02:54:55;9.40;;;5.90;;
781;SDS011;374;52.568;13.402;2023-04-06T02:57:20;6.37;;;5.73;;
781;SDS011;374;52.568;13.402;2023-04-06T02:59:46;7.23;;;5.70;;
781;SDS011;374;52.568;13.402;2023-04-06T03:02:11;7.40;;;6.40;;
781;SDS011;374;52.568;13.402;2023-04-06T03:04:37;7.40;;;6.70;;
781;SDS011;374;52.568;13.402;2023-04-06T03:07:02;10.03;;;5.93;;
781;SDS011;374;52.568;13.402;2023-04-06T03:09:28;6.23;;;5.70;;
781;SDS011;374;52.568;13.402;2023-04-06T03:11:55;7.37;;;6.70;;
781;SDS011;374;52.568;13.402;2023-04-06T03:14:21;6.97;;;6.30;;
781;SDS011;374;52.568;13.402;2023-04-06T03:16:47;7.60;;;6.90;;
781;SDS011;374;52.568;13.402;2023-04-06T03:19:16;6.60;;;6.10;;
781;SDS011;374;52.568;13.402;2023-04-06T03:21:42;7.10;;;6.17;;
781;SDS011;374;52.568;13.402;2023-04-06T03:24:07;8.43;;;6.97;;
781;SDS011;374;52.568;13.402;2023-04-06T03:26:33;9.37;;;7.00;;
781;SDS011;374;52.568;13.402;2023-04-06T03:28:59;7.60;;;6.90;;
781;SDS011;374;52.568;13.402;2023-04-06T03:31:25;7.30;;;6.60;;
781;SDS011;374;52.568;13.402;2023-04-06T03:33:51;8.40;;;7.20;;
781;SDS011;374;52.568;13.402;2023-04-06T03:36:17;8.27;;;7.53;;
781;SDS011;374;52.568;13.402;2023-04-06T03:38:43;14.63;;;7.97;;
781;SDS011;374;52.568;13.402;2023-04-06T03:41:08;8.60;;;7.70;;
781;SDS011;374;52.568;13.402;2023-04-06T03:43:34;7.80;;;7.00;;
781;SDS011;374;52.568;13.402;2023-04-06T03:45:59;9.00;;;8.03;;
781;SDS011;374;52.568;13.402;2023-04-06T03:48:25;7.80;;;6.70;;
781;SDS011;374;52.568;13.402;2023-04-06T03:50:50;7.70;;;6.97;;
781;SDS011;374;52.568;13.402;2023-04-06T03:53:15;9.17;;;8.37;;
781;SDS011;374;52.568;13.402;2023-04-06T03:55:41;9.93;;;8.90;;
781;SDS011;374;52.568;13.402;2023-04-06T03:58:06;15.30;;;10.00;;
781;SDS011;374;52.568;13.402;2023-04-06T04:00:32;10.53;;;9.53;;
781;SDS011;374;52.568;13.402;2023-04-06T04:02:58;11.50;;;9.67;;
781;SDS011;374;52.568;13.402;2023-04-06T04:05:23;12.70;;;10.00;;
781;SDS011;374;52.568;13.402;2023-04-06T04:07:50;13.70;;;10.10;;
781;SDS011;374;52.568;13.402;2023-04-06T04:10:16;11.57;;;10.40;;
781;SDS011;374;52.568;13.402;2023-04-06T04:12:42;12.20;;;10.03;;
781;SDS011;374;52.568;13.402;2023-04-06T04:15:07;11.50;;;10.17;;
781;SDS011;374;52.568;13.402;2023-04-06T04:17:33;12.50;;;11.20;;
781;SDS011;374;52.568;13.402;2023-04-06T04:19:58;11.83;;;10.53;;
781;SDS011;374;52.568;13.402;2023-04-06T04:22:24;11.73;;;10.63;;
781;SDS011;374;52.568;13.402;2023-04-06T04:24:50;11.17;;;10.07;;
781;SDS011;374;52.568;13.402;2023-04-06T04:27:15;11.17;;;9.97;;
781;SDS011;374;52.568;13.402;2023-04-06T04:29:40;11.00;;;9.30;;
781;SDS011;374;52.568;13.402;2023-04-06T04:32:08;11.30;;;10.20;;
781;SDS011;374;52.568;13.402;2023-04-06T04:34:34;12.00;;;10.80;;
781;SDS011;374;52.568;13.402;2023-04-06T04:36:59;12.47;;;10.37;;
781;SDS011;374;52.568;13.402;2023-04-06T04:39:25;11.87;;;10.50;;
781;SDS011;374;52.568;13.402;2023-04-06T04:41:50;12.20;;;9.97;;
781;SDS011;374;52.568;13.402;2023-04-06T04:44:16;11.70;;;10.50;;
781;SDS011;374;52.568;13.402;2023-04-06T04:46:41;11.53;;;10.40;;
781;SDS011;374;52.568;13.402;2023-04-06T04:49:07;12.93;;;10.67;;
781;SDS011;374;52.568;13.402;2023-04-06T04:51:32;11.50;;;10.40;;
781;SDS011;374;52.568;13.402;2023-04-06T04:53:58;10.93;;;9.73;;
781;SDS011;374;52.568;13.402;2023-04-06T04:56:24;11.90;;;10.80;;
781;SDS011;374;52.568;13.402;2023-04-06T04:58:50;12.97;;;11.27;;
781;SDS011;374;52.568;13.402;2023-04-06T05:01:15;13.87;;;10.23;;
781;SDS011;374;52.568;13.402;2023-04-06T05:03:41;12.30;;;11.07;;
781;SDS011;374;52.568;13.402;2023-04-06T05:06:06;11.60;;;10.50;;
781;SDS011;374;52.568;13.402;2023-04-06T05:08:32;13.60;;;11.90;;
781;SDS011;374;52.568;13.402;2023-04-06T05:10:58;12.60;;;11.40;;
781;SDS011;374;52.568;13.402;2023-04-06T05:13:24;11.53;;;10.37;;
781;SDS011;374;52.568;13.402;2023-04-06T05:15:49;12.60;;;11.10;;
781;SDS011;374;52.568;13.402;2023-04-06T05:18:15;12.67;;;11.07;;
781;SDS011;374;52.568;13.402;2023-04-06T05:20:41;12.07;;;10.97;;
781;SDS011;374;52.568;13.402;2023-04-06T05:23:07;12.63;;;10.90;;
781;SDS011;374;52.568;13.402;2023-04-06T05:25:33;12.83;;;10.47;;
781;SDS011;374;52.568;13.402;2023-04-06T05:27:58;14.17;;;10.87;;
781;SDS011;374;52.568;13.402;2023-04-06T05:30:24;13.57;;;11.63;;
781;SDS011;374;52.568;13.402;2023-04-06T05:32:50;12.97;;;11.70;;
781;SDS011;374;52.568;13.402;2023-04-06T05:35:16;14.73;;;11.60;;
781;SDS011;374;52.568;13.402;2023-04-06T05:37:42;12.70;;;11.43;;
781;SDS011;374;52.568;13.402;2023-04-06T05:40:08;16.20;;;11.93;;
781;SDS011;374;52.568;13.402;2023-04-06T05:42:43;13.93;;;11.40;;
781;SDS011;374;52.568;13.402;2023-04-06T05:45:09;12.20;;;11.00;;
781;SDS011;374;52.568;13.402;2023-04-06T05:47:36;12.63;;;10.57;;
781;SDS011;374;52.568;13.402;2023-04-06T05:50:02;14.43;;;12.13;;
781;SDS011;374;52.568;13.402;2023-04-06T05:52:28;11.50;;;10.33;;
781;SDS011;374;52.568;13.402;2023-04-06T05:54:53;12.47;;;11.43;;
781;SDS011;374;52.568;13.402;2023-04-06T05:57:19;17.97;;;13.90;;
781;SDS011;374;52.568;13.402;2023-04-06T05:59:45;12.50;;;11.27;;
781;SDS011;374;52.568;13.402;2023-04-06T06:02:10;12.70;;;11.00;;
781;SDS011;374;52.568;13.402;2023-04-06T06:04:36;13.20;;;11.87;;
781;SDS011;374;52.568;13.402;2023-04-06T06:07:01;16.20;;;12.13;;
781;SDS011;374;52.568;13.402;2023-04-06T06:09:27;13.20;;;11.70;;
781;SDS011;374;52.568;13.402;2023-04-06T06:11:52;11.83;;;10.47;;
781;SDS011;374;52.568;13.402;2023-04-06T06:14:18;12.40;;;11.20;;
781;SDS011;374;52.568;13.402;2023-04-06T06:16:43;12.87;;;11.47;;
781;SDS011;374;52.568;13.402;2023-04-06T06:19:09;11.37;;;10.17;;
781;SDS011;374;52.568;13.402;2023-04-06T06:21:35;11.57;;;10.43;;
781;SDS011;374;52.568;13.402;2023-04-06T06:24:00;11.53;;;10.37;;
781;SDS011;374;52.568;13.402;2023-04-06T06:26:26;11.90;;;10.70;;
781;SDS011;374;52.568;13.402;2023-04-06T06:28:52;10.60;;;9.57;;
781;SDS011;374;52.568;13.402;2023-04-06T06:31:17;12.30;;;10.53;;
781;SDS011;374;52.568;13.402;2023-04-06T06:33:47;10.93;;;9.90;;
781;SDS011;374;52.568;13.402;2023-04-06T06:36:15;11.33;;;10.13;;
781;SDS011;374;52.568;13.402;2023-04-06T06:38:41;10.67;;;9.60;;
781;SDS011;374;52.568;13.402;2023-04-06T06:41:07;13.90;;;10.47;;
781;SDS011;374;52.568;13.402;2023-04-06T06:43:32;11.00;;;9.90;;
781;SDS011;374;52.568;13.402;2023-04-06T06:45:57;11.10;;;9.73;;
781;SDS011;374;52.568;13.402;2023-04-06T06:48:23;11.30;;;10.10;;
781;SDS011;374;52.568;13.402;2023-04-06T06:50:49;11.93;;;10.70;;
781;SDS011;374;52.568;13.402;2023-04-06T06:53:14;11.70;;;9.50;;
781;SDS011;374;52.568;13.402;2023-04-06T06:55:40;13.63;;;12.00;;
781;SDS011;374;52.568;13.402;2023-04-06T06:58:06;10.97;;;9.97;;
781;SDS011;374;52.568;13.402;2023-04-06T07:00:31;12.23;;;10.60;;
781;SDS011;374;52.568;13.402;2023-04-06T07:02:57;11.40;;;9.57;;
781;SDS011;374;52.568;13.402;2023-04-06T07:05:22;10.60;;;9.50;;
781;SDS011;374;52.568;13.402;2023-04-06T07:07:48;12.50;;;9.77;;
781;SDS011;374;52.568;13.402;2023-04-06T07:10:13;10.00;;;9.00;;
781;SDS011;374;52.568;13.402;2023-04-06T07:12:39;14.60;;;9.63;;
781;SDS011;374;52.568;13.402;2023-04-06T07:15:05;11.60;;;8.83;;
781;SDS011;374;52.568;13.402;2023-04-06T07:17:31;11.47;;;8.43;;
781;SDS011;374;52.568;13.402;2023-04-06T07:19:56;9.70;;;7.90;;
781;SDS011;374;52.568;13.402;2023-04-06T07:22:22;11.87;;;9.57;;
781;SDS011;374;52.568;13.402;2023-04-06T07:24:47;9.83;;;8.30;;
781;SDS011;374;52.568;13.402;2023-04-06T07:27:12;11.03;;;9.47;;
781;SDS011;374;52.568;13.402;2023-04-06T07:29:38;9.67;;;8.70;;
781;SDS011;374;52.568;13.402;2023-04-06T07:32:03;11.40;;;9.40;;
781;SDS011;374;52.568;13.402;2023-04-06T07:34:29;11.13;;;9.47;;
781;SDS011;374;52.568;13.402;2023-04-06T07:36:55;9.40;;;8.50;;
781;SDS011;374;52.568;13.402;2023-04-06T07:39:21;10.20;;;9.00;;
781;SDS011;374;52.568;13.402;2023-04-06T07:41:47;11.87;;;9.53;;
781;SDS011;374;52.568;13.402;2023-04-06T07:44:12;8.83;;;7.93;;
781;SDS011;374;52.568;13.402;2023-04-06T07:46:38;8.30;;;7.60;;
781;SDS011;374;52.568;13.402;2023-04-06T07:49:03;9.33;;;8.43;;
781;SDS011;374;52.568;13.402;2023-04-06T07:51:29;14.90;;;9.00;;
781;SDS011;374;52.568;13.402;2023-04-06T07:53:54;7.50;;;6.13;;
781;SDS011;374;52.568;13.402;2023-04-06T07:56:20;12.50;;;7.43;;
781;SDS011;374;52.568;13.402;2023-04-06T07:58:46;11.47;;;7.50;;
781;SDS011;374;52.568;13.402;2023-04-06T08:01:12;6.73;;;5.70;;
781;SDS011;374;52.568;13.402;2023-04-06T08:03:38;9.93;;;7.33;;
781;SDS011;374;52.568;13.402;2023-04-06T08:06:03;9.73;;;6.83;;
781;SDS011;374;52.568;13.402;2023-04-06T08:08:30;7.20;;;6.50;;
781;SDS011;374;52.568;13.402;2023-04-06T08:10:56;9.03;;;6.77;;
781;SDS011;374;52.568;13.402;2023-04-06T08:13:21;5.90;;;5.00;;
781;SDS011;374;52.568;13.402;2023-04-06T08:15:47;6.50;;;5.90;;
781;SDS011;374;52.568;13.402;2023-04-06T08:18:12;8.60;;;7.70;;
781;SDS011;374;52.568;13.402;2023-04-06T08:20:38;7.37;;;6.47;;
781;SDS011;374;52.568;13.402;2023-04-06T08:23:04;8.03;;;6.23;;
781;SDS011;374;52.568;13.402;2023-04-06T08:25:31;6.13;;;5.50;;
781;SDS011;374;52.568;13.402;2023-04-06T08:27:58;5.37;;;4.63;;
781;SDS011;374;52.568;13.402;2023-04-06T08:30:24;5.13;;;4.63;;
781;SDS011;374;52.568;13.402;2023-04-06T08:32:49;7.13;;;5.70;;
781;SDS011;374;52.568;13.402;2023-04-06T08:35:15;7.43;;;6.33;;
781;SDS011;374;52.568;13.402;2023-04-06T08:37:40;6.50;;;5.90;;
781;SDS011;374;52.568;13.402;2023-04-06T08:40:06;5.43;;;4.93;;
781;SDS011;374;52.568;13.402;2023-04-06T08:42:32;7.10;;;5.33;;
781;SDS011;374;52.568;13.402;2023-04-06T08:45:03;7.87;;;7.03;;
781;SDS011;374;52.568;13.402;2023-04-06T08:47:28;5.77;;;5.20;;
781;SDS011;374;52.568;13.402;2023-04-06T08:49:54;5.47;;;4.90;;
781;SDS011;374;52.568;13.402;2023-04-06T08:52:21;5.63;;;5.13;;
781;SDS011;374;52.568;13.402;2023-04-06T08:54:47;5.83;;;5.07;;
781;SDS011;374;52.568;13.402;2023-04-06T08:57:12;4.93;;;4.43;;
781;SDS011;374;52.568;13.402;2023-04-06T08:59:38;10.20;;;4.53;;
781;SDS011;374;52.568;13.402;2023-04-06T09:02:05;3.83;;;3.53;;
781;SDS011;374;52.568;13.402;2023-04-06T09:04:33;5.40;;;3.67;;
781;SDS011;374;52.568;13.402;2023-04-06T09:07:01;3.73;;;3.43;;
781;SDS011;374;52.568;13.402;2023-04-06T09:09:26;4.60;;;4.20;;
781;SDS011;374;52.568;13.402;2023-04-06T09:11:52;3.73;;;3.43;;
781;SDS011;374;52.568;13.402;2023-04-06T09:14:32;4.23;;;3.83;;
781;SDS011;374;52.568;13.402;2023-04-06T09:17:02;4.03;;;3.63;;
781;SDS011;374;52.568;13.402;2023-04-06T09:19:28;4.53;;;3.30;;
781;SDS011;374;52.568;13.402;2023-04-06T09:22:03;3.93;;;3.50;;
781;SDS011;374;52.568;13.402;2023-04-06T09:24:39;4.67;;;4.27;;
781;SDS011;374;52.568;13.402;2023-04-06T09:27:12;3.97;;;3.67;;
781;SDS011;374;52.568;13.402;2023-04-06T09:29:38;4.83;;;3.77;;
781;SDS011;374;52.568;13.402;2023-04-06T09:32:06;6.17;;;4.37;;
781;SDS011;374;52.568;13.402;2023-04-06T09:34:33;4.20;;;3.80;;
781;SDS011;374;52.568;13.402;2023-04-06T09:36:59;4.23;;;3.80;;
781;SDS011;374;52.568;13.402;2023-04-06T09:39:24;4.63;;;3.73;;
781;SDS011;374;52.568;13.402;2023-04-06T09:41:51;4.13;;;3.73;;
781;SDS011;374;52.568;13.402;2023-04-06T09:44:17;3.47;;;3.17;;
781;SDS011;374;52.568;13.402;2023-04-06T09:46:44;3.83;;;3.53;;
781;SDS011;374;52.568;13.402;2023-04-06T09:49:11;3.73;;;3.43;;
781;SDS011;374;52.568;13.402;2023-04-06T09:51:39;3.40;;;3.10;;
781;SDS011;374;52.568;13.402;2023-04-06T09:54:18;4.00;;;3.70;;
781;SDS011;374;52.568;13.402;2023-04-06T09:56:46;3.90;;;3.60;;
781;SDS011;374;52.568;13.402;2023-04-06T09:59:25;3.90;;;3.60;;
781;SDS011;374;52.568;13.402;2023-04-06T10:02:02;3.40;;;3.20;;
781;SDS011;374;52.568;13.402;2023-04-06T10:07:01;3.83;;;3.47;;
781;SDS011;374;52.568;13.402;2023-04-06T10:09:28;3.27;;;3.07;;
781;SDS011;374;52.568;13.402;2023-04-06T10:12:02;4.17;;;3.77;;
781;SDS011;374;52.568;13.402;2023-04-06T10:14:34;3.50;;;3.00;;
781;SDS011;374;52.568;13.402;2023-04-06T10:17:05;3.43;;;2.40;;
781;SDS011;374;52.568;13.402;2023-04-06T10:19:36;3.60;;;2.30;;
781;SDS011;374;52.568;13.402;2023-04-06T10:22:44;3.00;;;2.13;;
781;SDS011;374;52.568;13.402;2023-04-06T10:25:26;3.23;;;3.03;;
781;SDS011;374;52.568;13.402;2023-04-06T10:27:59;2.83;;;2.60;;
781;SDS011;374;52.568;13.402;2023-04-06T10:30:25;3.27;;;2.97;;
781;SDS011;374;52.568;13.402;2023-04-06T10:32:52;4.60;;;3.23;;
781;SDS011;374;52.568;13.402;2023-04-06T10:35:18;3.83;;;3.33;;
781;SDS011;374;52.568;13.402;2023-04-06T10:37:47;3.63;;;3.07;;
781;SDS011;374;52.568;13.402;2023-04-06T10:40:21;3.37;;;3.10;;
781;SDS011;374;52.568;13.402;2023-04-06T10:42:51;4.03;;;2.83;;
781;SDS011;374;52.568;13.402;2023-04-06T10:45:25;4.57;;;3.80;;
781;SDS011;374;52.568;13.402;2023-04-06T10:47:52;3.00;;;2.70;;
781;SDS011;374;52.568;13.402;2023-04-06T10:50:18;2.93;;;2.63;;
781;SDS011;374;52.568;13.402;2023-04-06T10:52:45;3.13;;;2.87;;
781;SDS011;374;52.568;13.402;2023-04-06T10:55:11;4.30;;;3.07;;
781;SDS011;374;52.568;13.402;2023-04-06T10:57:39;3.50;;;3.20;;
781;SDS011;374;52.568;13.402;2023-04-06T11:00:05;3.00;;;2.60;;
781;SDS011;374;52.568;13.402;2023-04-06T11:02:31;7.03;;;3.10;;
781;SDS011;374;52.568;13.402;2023-04-06T11:04:57;3.10;;;2.77;;
781;SDS011;374;52.568;13.402;2023-04-06T11:07:27;3.00;;;2.37;;
781;SDS011;374;52.568;13.402;2023-04-06T11:09:54;3.53;;;2.80;;
781;SDS011;374;52.568;13.402;2023-04-06T11:12:27;6.03;;;3.00;;
781;SDS011;374;52.568;13.402;2023-04-06T11:14:56;3.23;;;2.87;;
781;SDS011;374;52.568;13.402;2023-04-06T11:17:31;3.40;;;2.67;;
781;SDS011;374;52.568;13.402;2023-04-06T11:20:01;2.83;;;2.63;;
781;SDS011;374;52.568;13.402;2023-04-06T11:22:27;2.53;;;2.37;;
781;SDS011;374;52.568;13.402;2023-04-06T11:24:53;3.03;;;2.30;;
781;SDS011;374;52.568;13.402;2023-04-06T11:27:31;4.23;;;3.77;;
781;SDS011;374;52.568;13.402;2023-04-06T11:30:01;4.77;;;3.40;;
781;SDS011;374;52.568;13.402;2023-04-06T11:32:41;3.70;;;3.30;;
781;SDS011;374;52.568;13.402;2023-04-06T11:37:50;2.70;;;2.40;;
781;SDS011;374;52.568;13.402;2023-04-06T11:40:25;4.90;;;3.20;;
781;SDS011;374;52.568;13.402;2023-04-06T11:42:53;3.73;;;3.03;;
781;SDS011;374;52.568;13.402;2023-04-06T11:45:20;3.00;;;2.70;;
781;SDS011;374;52.568;13.402;2023-04-06T11:47:45;2.90;;;2.60;;
781;SDS011;374;52.568;13.402;2023-04-06T11:50:22;3.23;;;2.93;;
781;SDS011;374;52.568;13.402;2023-04-06T11:52:47;3.30;;;3.10;;
781;SDS011;374;52.568;13.402;2023-04-06T11:55:24;3.27;;;2.90;;
781;SDS011;374;52.568;13.402;2023-04-06T11:57:52;3.50;;;3.20;;
781;SDS011;374;52.568;13.402;2023-04-06T12:00:21;3.47;;;3.17;;
781;SDS011;374;52.568;13.402;2023-04-06T12:02:47;3.47;;;3.17;;
781;SDS011;374;52.568;13.402;2023-04-06T12:05:14;2.80;;;2.60;;
781;SDS011;374;52.568;13.402;2023-04-06T12:07:39;3.23;;;2.80;;
781;SDS011;374;52.568;13.402;2023-04-06T12:10:05;5.87;;;3.50;;
781;SDS011;374;52.568;13.402;2023-04-06T12:12:31;3.30;;;3.00;;
781;SDS011;374;52.568;13.402;2023-04-06T12:14:57;3.30;;;2.60;;
781;SDS011;374;52.568;13.402;2023-04-06T12:17:22;3.33;;;3.03;;
781;SDS011;374;52.568;13.402;2023-04-06T12:19:48;3.00;;;2.83;;
781;SDS011;374;52.568;13.402;2023-04-06T12:22:13;3.50;;;3.00;;
781;SDS011;374;52.568;13.402;2023-04-06T12:24:39;3.77;;;3.47;;
781;SDS011;374;52.568;13.402;2023-04-06T12:27:05;3.57;;;2.73;;
781;SDS011;374;52.568;13.402;2023-04-06T12:29:30;5.07;;;3.57;;
781;SDS011;374;52.568;13.402;2023-04-06T12:31:56;4.93;;;3.67;;
781;SDS011;374;52.568;13.402;2023-04-06T12:34:21;3.40;;;3.13;;
781;SDS011;374;52.568;13.402;2023-04-06T12:36:46;3.60;;;3.03;;
781;SDS011;374;52.568;13.402;2023-04-06T12:39:12;3.40;;;3.10;;
781;SDS011;374;52.568;13.402;2023-04-06T12:41:37;3.40;;;3.10;;
781;SDS011;374;52.568;13.402;2023-04-06T12:44:06;4.10;;;3.33;;
781;SDS011;374;52.568;13.402;2023-04-06T12:46:31;4.70;;;3.80;;
781;SDS011;374;52.568;13.402;2023-04-06T12:48:57;3.00;;;2.80;;
781;SDS011;374;52.568;13.402;2023-04-06T12:51:24;3.40;;;3.10;;
781;SDS011;374;52.568;13.402;2023-04-06T12:53:52;4.03;;;3.43;;
781;SDS011;374;52.568;13.402;2023-04-06T12:56:18;2.97;;;2.70;;
781;SDS011;374;52.568;13.402;2023-04-06T12:58:44;2.93;;;2.70;;
781;SDS011;374;52.568;13.402;2023-04-06T13:01:10;4.50;;;3.50;;
781;SDS011;374;52.568;13.402;2023-04-06T13:03:39;3.30;;;3.00;;
781;SDS011;374;52.568;13.402;2023-04-06T13:06:05;4.17;;;2.97;;
781;SDS011;374;52.568;13.402;2023-04-06T13:08:33;3.03;;;2.73;;
781;SDS011;374;52.568;13.402;2023-04-06T13:11:01;3.40;;;3.20;;
781;SDS011;374;52.568;13.402;2023-04-06T13:13:27;3.13;;;2.93;;
781;SDS011;374;52.568;13.402;2023-04-06T13:15:58;3.27;;;2.97;;
781;SDS011;374;52.568;13.402;2023-04-06T13:18:26;3.53;;;3.20;;
781;SDS011;374;52.568;13.402;2023-04-06T13:20:52;3.10;;;2.90;;
781;SDS011;374;52.568;13.402;2023-04-06T13:23:23;3.77;;;3.17;;
781;SDS011;374;52.568;13.402;2023-04-06T13:25:56;3.97;;;3.57;;
781;SDS011;374;52.568;13.402;2023-04-06T13:28:32;5.03;;;3.30;;
781;SDS011;374;52.568;13.402;2023-04-06T13:30:59;4.00;;;3.70;;
781;SDS011;374;52.568;13.402;2023-04-06T13:33:26;3.40;;;2.83;;
781;SDS011;374;52.568;13.402;2023-04-06T13:35:52;6.70;;;3.13;;
781;SDS011;374;52.568;13.402;2023-04-06T13:38:18;3.43;;;3.13;;
781;SDS011;374;52.568;13.402;2023-04-06T13:40:43;3.47;;;3.17;;
781;SDS011;374;52.568;13.402;2023-04-06T13:43:09;4.03;;;3.37;;
781;SDS011;374;52.568;13.402;2023-04-06T13:45:35;4.00;;;3.60;;
781;SDS011;374;52.568;13.402;2023-04-06T13:48:01;4.43;;;3.63;;
781;SDS011;374;52.568;13.402;2023-04-06T13:50:27;3.63;;;3.17;;
781;SDS011;374;52.568;13.402;2023-04-06T13:52:53;4.60;;;3.90;;
781;SDS011;374;52.568;13.402;2023-04-06T13:55:18;3.90;;;3.60;;
781;SDS011;374;52.568;13.402;2023-04-06T13:57:44;4.00;;;3.60;;
781;SDS011;374;52.568;13.402;2023-04-06T14:00:10;3.47;;;3.17;;
781;SDS011;374;52.568;13.402;2023-04-06T14:02:37;3.70;;;3.37;;
781;SDS011;374;52.568;13.402;2023-04-06T14:05:04;3.60;;;3.30;;
781;SDS011;374;52.568;13.402;2023-04-06T14:07:30;3.43;;;3.13;;
781;SDS011;374;52.568;13.402;2023-04-06T14:09:55;4.30;;;3.67;;
781;SDS011;374;52.568;13.402;2023-04-06T14:12:24;4.20;;;3.80;;
781;SDS011;374;52.568;13.402;2023-04-06T14:14:50;3.87;;;3.40;;
781;SDS011;374;52.568;13.402;2023-04-06T14:17:15;3.83;;;3.53;;
781;SDS011;374;52.568;13.402;2023-04-06T14:19:41;3.90;;;3.43;;
781;SDS011;374;52.568;13.402;2023-04-06T14:22:07;4.00;;;3.70;;
781;SDS011;374;52.568;13.402;2023-04-06T14:24:33;5.40;;;3.60;;
781;SDS011;374;52.568;13.402;2023-04-06T14:27:00;3.47;;;3.27;;
781;SDS011;374;52.568;13.402;2023-04-06T14:29:27;4.47;;;4.07;;
781;SDS011;374;52.568;13.402;2023-04-06T14:31:53;3.80;;;3.60;;
781;SDS011;374;52.568;13.402;2023-04-06T14:34:24;3.63;;;3.37;;
781;SDS011;374;52.568;13.402;2023-04-06T14:36:51;3.90;;;3.40;;
781;SDS011;374;52.568;13.402;2023-04-06T14:39:19;5.63;;;2.90;;
781;SDS011;374;52.568;13.402;2023-04-06T14:41:45;4.13;;;3.50;;
781;SDS011;374;52.568;13.402;2023-04-06T14:44:12;4.00;;;3.70;;
781;SDS011;374;52.568;13.402;2023-04-06T14:46:38;5.23;;;3.93;;
781;SDS011;374;52.568;13.402;2023-04-06T14:49:03;5.27;;;4.47;;
781;SDS011;374;52.568;13.402;2023-04-06T14:51:29;3.50;;;3.20;;
781;SDS011;374;52.568;13.402;2023-04-06T14:53:55;3.97;;;3.57;;
781;SDS011;374;52.568;13.402;2023-04-06T14:56:22;3.90;;;3.60;;
781;SDS011;374;52.568;13.402;2023-04-06T14:58:48;4.40;;;4.00;;
781;SDS011;374;52.568;13.402;2023-04-06T15:01:18;4.03;;;3.67;;
781;SDS011;374;52.568;13.402;2023-04-06T15:03:45;6.57;;;3.37;;
781;SDS011;374;52.568;13.402;2023-04-06T15:06:14;6.03;;;3.70;;
781;SDS011;374;52.568;13.402;2023-04-06T15:08:41;3.47;;;3.17;;
781;SDS011;374;52.568;13.402;2023-04-06T15:11:07;4.10;;;3.70;;
781;SDS011;374;52.568;13.402;2023-04-06T15:13:33;3.90;;;3.60;;
781;SDS011;374;52.568;13.402;2023-04-06T15:15:59;4.03;;;3.73;;
781;SDS011;374;52.568;13.402;2023-04-06T15:18:24;3.60;;;3.30;;
781;SDS011;374;52.568;13.402;2023-04-06T15:20:50;4.80;;;4.40;;
781;SDS011;374;52.568;13.402;2023-04-06T15:23:16;4.50;;;4.10;;
781;SDS011;374;52.568;13.402;2023-04-06T15:25:43;4.10;;;3.77;;
781;SDS011;374;52.568;13.402;2023-04-06T15:28:08;3.70;;;3.40;;